EDXW/GWT METAR and TAF weather

Enter ICAO airport designator
Station Type Date Time Source
EDXW METAR 2018/01/19 16:50 UTC NOAA

EDXW 191650Z 29005KT 250V310 9999 -RA FEW009 SCT020 BKN034 02/01 Q1003


Station Type Date Time Source
EDXW Decoded METAR 2018/01/19 16:50 UTC NOAA

Westerland / Sylt, Germany (EDXW) 54-55N 008-21E 20M
Jan 19, 2018 - 11:50 AM EST / 2018.01.19 1650 UTC
Wind: from the WNW (290 degrees) at 6 MPH (5 KT) (direction variable):0
Visibility: greater than 7 mile(s):0
Sky conditions: mostly cloudy
Weather: light rain
Temperature: 35 F (2 C)
Windchill: 30 F (-1 C):1
Dew Point: 33 F (1 C)
Relative Humidity: 93%
Pressure (altimeter): 29.62 in. Hg (1003 hPa)
ob: EDXW 191650Z 29005KT 250V310 9999 -RA FEW009 SCT020 BKN034 02/01 Q1003
cycle: 17

Station Type Date Time Source
EDXW TAF 2009/07/07 14:00 UTC NOAA

TAF EDXW 071400Z 0715/0719 22015G25KT 9999 SCT020


Example: see airport list